createdAt,value
2018-05-03T00:00:27.946Z,12.20
2018-05-03T00:02:55.424Z,12.20
2018-05-03T00:05:22.901Z,12.10
2018-05-03T00:07:50.359Z,12.20
2018-05-03T00:10:17.939Z,12.20
2018-05-03T00:12:46.163Z,12.20
2018-05-03T00:15:13.648Z,12.10
2018-05-03T00:17:41.111Z,12.20
2018-05-03T00:20:08.597Z,12.20
2018-05-03T00:22:36.837Z,12.30
2018-05-03T00:25:04.342Z,12.20
2018-05-03T00:27:31.799Z,12.20
2018-05-03T00:29:59.283Z,12.20
2018-05-03T00:32:26.763Z,12.20
2018-05-03T00:34:54.250Z,12.20
2018-05-03T00:37:22.559Z,12.20
2018-05-03T00:39:50.048Z,12.20
2018-05-03T00:42:17.519Z,12.20
2018-05-03T00:44:45.784Z,12.20
2018-05-03T00:47:13.251Z,12.20
2018-05-03T00:49:40.843Z,12.20
2018-05-03T00:52:09.075Z,12.20
2018-05-03T00:54:47.525Z,12.20
2018-05-03T00:57:15.773Z,12.20
2018-05-03T00:59:43.383Z,12.20
2018-05-03T01:02:10.847Z,12.30
2018-05-03T01:04:38.327Z,12.20
2018-05-03T01:07:05.794Z,12.20
2018-05-03T01:09:33.267Z,12.20
2018-05-03T01:12:00.769Z,12.20
2018-05-03T01:14:28.238Z,12.20
2018-05-03T01:16:55.705Z,12.30
2018-05-03T01:19:23.199Z,12.30
2018-05-03T01:21:50.691Z,12.30
2018-05-03T01:24:18.239Z,12.20
2018-05-03T01:26:46.516Z,12.20
2018-05-03T01:29:14.784Z,12.20
2018-05-03T01:31:43.094Z,12.20
2018-05-03T01:34:10.566Z,12.20
2018-05-03T01:36:38.111Z,12.20
2018-05-03T01:39:05.674Z,12.20
2018-05-03T01:41:33.139Z,12.20
2018-05-03T01:44:00.627Z,12.20
2018-05-03T01:46:28.084Z,12.30
2018-05-03T01:48:55.583Z,12.20
2018-05-03T01:51:23.840Z,12.30
2018-05-03T01:53:52.935Z,12.30
2018-05-03T01:56:21.213Z,12.20
2018-05-03T01:58:49.470Z,12.20
2018-05-03T02:01:16.952Z,12.20
2018-05-03T02:03:45.224Z,12.20
2018-05-03T02:06:13.532Z,12.20
2018-05-03T02:08:41.091Z,12.20
2018-05-03T02:11:08.651Z,12.30
2018-05-03T02:13:36.209Z,12.20
2018-05-03T02:16:03.697Z,12.30
2018-05-03T02:18:31.165Z,12.30
2018-05-03T02:20:58.684Z,12.30
2018-05-03T02:23:26.216Z,12.20
2018-05-03T02:25:54.495Z,12.20
2018-05-03T02:28:22.778Z,12.20
2018-05-03T02:30:51.031Z,12.10
2018-05-03T02:33:18.496Z,12.20
2018-05-03T02:35:46.756Z,12.10
2018-05-03T02:38:14.227Z,12.10
2018-05-03T02:40:42.507Z,12.10
2018-05-03T02:43:10.724Z,12.10
2018-05-03T02:45:38.216Z,12.10
2018-05-03T02:48:05.672Z,12.10
2018-05-03T02:50:33.144Z,12.10
2018-05-03T02:53:00.616Z,12.10
2018-05-03T02:55:28.865Z,12.10
2018-05-03T02:58:14.005Z,12.10
2018-05-03T03:00:59.198Z,12.10
2018-05-03T03:03:44.433Z,12.00
2018-05-03T03:06:29.736Z,12.10
2018-05-03T03:12:47.153Z,12.00
2018-05-03T03:15:32.364Z,12.00
2018-05-03T03:18:11.894Z,12.00
2018-05-03T03:20:57.269Z,12.10
2018-05-03T03:23:42.621Z,12.00
2018-05-03T03:29:48.971Z,11.90
2018-05-03T03:32:28.440Z,12.00
2018-05-03T03:38:12.459Z,11.90
2018-05-03T03:40:51.903Z,11.90
2018-05-03T03:46:20.183Z,11.90
2018-05-03T03:48:47.762Z,11.90
2018-05-03T03:51:15.984Z,11.90
2018-05-03T03:53:43.464Z,11.90
2018-05-03T03:56:10.927Z,11.90
2018-05-03T03:58:38.404Z,11.90
2018-05-03T04:01:05.870Z,11.90
2018-05-03T04:03:33.360Z,11.90
2018-05-03T04:06:00.821Z,11.90
2018-05-03T04:08:28.362Z,12.00
2018-05-03T04:10:55.830Z,11.90
2018-05-03T04:13:23.328Z,12.00
2018-05-03T04:15:50.793Z,12.00
2018-05-03T04:18:30.367Z,12.10
2018-05-03T04:21:10.554Z,12.10
2018-05-03T04:24:05.032Z,12.10
2018-05-03T04:26:32.508Z,12.10
2018-05-03T04:28:59.992Z,12.00
2018-05-03T04:31:27.473Z,12.00
2018-05-03T04:33:54.974Z,12.00
2018-05-03T04:36:22.450Z,12.10
2018-05-03T04:38:49.949Z,12.10
2018-05-03T04:41:17.433Z,12.20
2018-05-03T04:43:44.902Z,12.20
2018-05-03T04:46:12.396Z,12.20
2018-05-03T04:48:39.861Z,12.20
2018-05-03T04:51:07.344Z,12.30
2018-05-03T04:53:35.582Z,12.40
2018-05-03T04:56:03.070Z,12.30
2018-05-03T04:58:30.731Z,12.40
2018-05-03T05:00:58.295Z,12.50
2018-05-03T05:03:26.520Z,12.60
2018-05-03T05:05:54.023Z,12.60
2018-05-03T05:08:21.577Z,12.60
2018-05-03T05:10:49.071Z,12.60
2018-05-03T05:13:16.547Z,12.70
2018-05-03T05:15:44.030Z,12.70
2018-05-03T05:18:11.503Z,12.70
2018-05-03T05:20:39.108Z,12.70
2018-05-03T05:23:06.613Z,12.70
2018-05-03T05:25:34.114Z,12.70
2018-05-03T05:28:01.580Z,12.70
2018-05-03T05:30:29.068Z,12.70
2018-05-03T05:32:56.627Z,12.70
2018-05-03T05:35:24.110Z,12.70
2018-05-03T05:37:52.354Z,12.70
2018-05-03T05:40:19.868Z,12.70
2018-05-03T05:42:48.105Z,12.70
2018-05-03T05:45:15.588Z,12.70
2018-05-03T05:47:43.817Z,12.70
2018-05-03T05:50:11.768Z,12.70
2018-05-03T05:52:39.389Z,12.80
2018-05-03T05:55:06.885Z,12.90
2018-05-03T05:57:34.371Z,12.90
2018-05-03T06:00:01.876Z,12.90
2018-05-03T06:02:30.177Z,13.00
2018-05-03T06:04:57.697Z,13.00
2018-05-03T06:07:25.975Z,13.00
2018-05-03T06:09:54.318Z,12.90
2018-05-03T06:12:22.558Z,12.90
2018-05-03T06:14:50.036Z,12.90
2018-05-03T06:17:17.511Z,12.90
2018-05-03T06:19:44.987Z,12.90
2018-05-03T06:22:12.463Z,12.90
2018-05-03T06:24:40.732Z,12.90
2018-05-03T06:27:08.975Z,12.90
2018-05-03T06:29:36.723Z,12.80
2018-05-03T06:32:04.213Z,12.80
2018-05-03T06:34:31.691Z,12.90
2018-05-03T06:36:59.942Z,12.90
2018-05-03T06:39:27.727Z,12.90
2018-05-03T06:41:55.445Z,13.00
2018-05-03T06:44:22.960Z,12.90
2018-05-03T06:46:51.196Z,12.90
2018-05-03T06:49:18.674Z,12.90
2018-05-03T06:51:46.798Z,13.00
2018-05-03T06:54:16.562Z,13.00
2018-05-03T06:56:45.036Z,13.00
2018-05-03T06:59:13.679Z,13.00
2018-05-03T07:01:42.161Z,13.00
2018-05-03T07:04:10.110Z,13.00
2018-05-03T07:06:37.602Z,13.10
2018-05-03T07:09:05.092Z,13.20
2018-05-03T07:11:33.898Z,13.30
2018-05-03T07:14:01.586Z,13.40
2018-05-03T07:16:29.947Z,13.40
2018-05-03T07:18:57.415Z,13.40
2018-05-03T07:21:24.904Z,13.60
2018-05-03T07:23:53.158Z,13.70
2018-05-03T07:26:21.464Z,13.80
2018-05-03T07:28:48.933Z,13.80
2018-05-03T07:31:16.427Z,13.80
2018-05-03T07:33:43.896Z,13.80
2018-05-03T07:36:11.375Z,13.80
2018-05-03T07:38:39.617Z,14.00
2018-05-03T07:41:07.247Z,14.00
2018-05-03T07:43:34.708Z,14.00
2018-05-03T07:46:02.196Z,14.10
2018-05-03T07:48:29.721Z,14.20
2018-05-03T07:50:57.925Z,14.20
2018-05-03T07:53:25.394Z,14.20
2018-05-03T07:55:52.888Z,14.00
2018-05-03T07:58:20.401Z,14.10
2018-05-03T08:00:47.872Z,14.20
2018-05-03T08:03:15.375Z,14.30
2018-05-03T08:05:42.901Z,14.30
2018-05-03T08:08:11.135Z,14.40
2018-05-03T08:10:38.654Z,14.40
2018-05-03T08:13:06.116Z,14.60
2018-05-03T08:15:33.608Z,14.60
2018-05-03T08:18:01.089Z,14.70
2018-05-03T08:20:28.586Z,14.80
2018-05-03T08:22:56.044Z,14.80
2018-05-03T08:25:23.555Z,14.90
2018-05-03T08:27:51.064Z,14.90
2018-05-03T08:30:18.562Z,15.00
2018-05-03T08:32:46.071Z,14.90
2018-05-03T08:35:13.599Z,14.80
2018-05-03T08:37:41.062Z,14.80
2018-05-03T08:40:09.322Z,15.20
2018-05-03T08:42:36.799Z,15.10
2018-05-03T08:45:05.060Z,15.40
2018-05-03T08:47:32.528Z,15.40
2018-05-03T08:50:00.792Z,15.60
2018-05-03T08:52:28.254Z,15.50
2018-05-03T08:54:55.710Z,15.70
2018-05-03T08:57:24.053Z,15.60
2018-05-03T08:59:51.532Z,15.50
2018-05-03T09:02:19.045Z,15.50
2018-05-03T09:04:46.501Z,15.60
2018-05-03T09:07:13.993Z,15.60
2018-05-03T09:09:41.458Z,15.70
2018-05-03T09:12:08.951Z,15.80
2018-05-03T09:14:37.182Z,15.80
2018-05-03T09:17:04.680Z,15.80
2018-05-03T09:19:32.956Z,15.60
2018-05-03T09:22:01.212Z,15.60
2018-05-03T09:24:29.450Z,15.50
2018-05-03T09:26:56.965Z,15.50
2018-05-03T09:29:25.232Z,15.70
2018-05-03T09:31:53.503Z,15.70
2018-05-03T09:34:20.980Z,15.70
2018-05-03T09:36:49.254Z,15.80
2018-05-03T09:39:17.553Z,15.90
2018-05-03T09:41:45.032Z,15.90
2018-05-03T09:44:12.527Z,16.00
2018-05-03T09:46:39.996Z,16.20
2018-05-03T09:49:08.289Z,16.30
2018-05-03T09:51:35.760Z,16.30
2018-05-03T09:54:03.260Z,16.50
2018-05-03T09:56:30.840Z,16.70
2018-05-03T09:58:59.090Z,17.20
2018-05-03T10:01:26.567Z,17.20
2018-05-03T10:03:54.043Z,17.40
2018-05-03T10:06:22.309Z,17.80
2018-05-03T10:08:50.579Z,18.00
2018-05-03T10:11:18.052Z,17.90
2018-05-03T10:13:46.317Z,17.50
2018-05-03T10:16:14.548Z,17.30
2018-05-03T10:18:42.038Z,17.20
2018-05-03T10:21:09.527Z,17.20
2018-05-03T10:23:37.062Z,17.40
2018-05-03T10:26:05.300Z,17.60
2018-05-03T10:28:32.776Z,17.60
2018-05-03T10:31:00.247Z,17.60
2018-05-03T10:33:27.853Z,18.00
2018-05-03T10:35:55.404Z,18.10
2018-05-03T10:38:23.623Z,18.40
2018-05-03T10:40:51.129Z,18.40
2018-05-03T10:43:18.613Z,18.50
2018-05-03T10:45:46.097Z,18.30
2018-05-03T10:48:13.551Z,18.30
2018-05-03T10:50:41.035Z,18.30
2018-05-03T10:53:09.303Z,17.90
2018-05-03T10:55:36.794Z,17.90
2018-05-03T10:58:04.253Z,18.10
2018-05-03T11:00:31.738Z,18.10
2018-05-03T11:02:59.200Z,18.20
2018-05-03T11:05:26.775Z,18.00
2018-05-03T11:10:25.536Z,18.00
2018-05-03T11:12:53.004Z,18.10
2018-05-03T11:15:20.476Z,18.10
2018-05-03T11:17:47.943Z,18.20
2018-05-03T11:20:15.404Z,18.30
2018-05-03T11:22:42.883Z,18.40
2018-05-03T11:25:10.340Z,18.40
2018-05-03T11:27:38.610Z,18.50
2018-05-03T11:30:06.087Z,18.50
2018-05-03T11:32:34.369Z,18.60
2018-05-03T11:35:02.612Z,18.70
2018-05-03T11:37:30.136Z,18.70
2018-05-03T11:39:57.595Z,18.80
2018-05-03T11:42:25.087Z,18.80
2018-05-03T11:44:52.592Z,18.80
2018-05-03T11:47:20.097Z,18.80
2018-05-03T11:49:47.569Z,19.00
2018-05-03T11:52:15.046Z,18.70
2018-05-03T11:54:42.528Z,18.80
2018-05-03T11:57:10.033Z,18.80
2018-05-03T11:59:37.516Z,18.80
2018-05-03T12:02:05.787Z,19.10
2018-05-03T12:04:34.040Z,19.10
2018-05-03T12:07:01.500Z,19.10
2018-05-03T12:09:29.020Z,19.20
2018-05-03T12:11:56.478Z,19.30
2018-05-03T12:14:23.948Z,19.30
2018-05-03T12:16:51.414Z,19.50
2018-05-03T12:19:18.897Z,19.60
2018-05-03T12:21:46.377Z,19.80
2018-05-03T12:24:13.868Z,19.90
2018-05-03T12:26:41.359Z,19.90
2018-05-03T12:29:09.599Z,20.10
2018-05-03T12:31:37.059Z,20.10
2018-05-03T12:34:04.558Z,20.10
2018-05-03T12:36:32.024Z,20.20
2018-05-03T12:39:00.294Z,20.30
2018-05-03T12:41:28.527Z,20.40
2018-05-03T12:43:55.999Z,20.40
2018-05-03T12:46:23.523Z,20.40
2018-05-03T12:48:51.015Z,20.40
2018-05-03T12:51:18.477Z,20.30
2018-05-03T12:53:46.054Z,20.40
2018-05-03T12:56:14.307Z,20.20
2018-05-03T12:58:41.771Z,20.20
2018-05-03T13:01:09.253Z,20.40
2018-05-03T13:03:37.492Z,21.00
2018-05-03T13:06:04.970Z,20.90
2018-05-03T13:08:32.458Z,21.00
2018-05-03T13:10:59.953Z,21.10
2018-05-03T13:13:28.122Z,21.20
2018-05-03T13:15:55.614Z,21.60
2018-05-03T13:18:23.085Z,21.60
2018-05-03T13:20:51.345Z,21.40
2018-05-03T13:23:18.837Z,21.40
2018-05-03T13:25:46.321Z,21.40
2018-05-03T13:28:13.868Z,21.20
2018-05-03T13:30:41.355Z,21.10
2018-05-03T13:33:08.897Z,21.30
2018-05-03T13:35:36.356Z,21.80
2018-05-03T13:38:03.832Z,22.30
2018-05-03T13:40:31.314Z,22.70
2018-05-03T13:42:58.800Z,22.90
2018-05-03T13:48:00.937Z,23.10
2018-05-03T13:50:28.403Z,23.00
2018-05-03T13:52:55.890Z,23.00
2018-05-03T13:55:24.132Z,23.20
2018-05-03T13:57:51.616Z,23.10
2018-05-03T14:00:19.844Z,23.70
2018-05-03T14:02:47.335Z,23.70
2018-05-03T14:05:14.795Z,23.50
2018-05-03T14:07:43.060Z,24.40
2018-05-03T14:10:10.530Z,24.30
2018-05-03T14:12:38.022Z,24.40
2018-05-03T14:15:05.555Z,24.10
2018-05-03T14:17:33.804Z,23.60
2018-05-03T14:20:01.280Z,23.60
2018-05-03T14:22:29.541Z,23.10
2018-05-03T14:24:57.001Z,23.10
2018-05-03T14:27:24.475Z,23.00
2018-05-03T14:29:52.717Z,23.80
2018-05-03T14:32:20.190Z,23.70
2018-05-03T14:34:47.654Z,23.40
2018-05-03T14:37:15.123Z,23.50
2018-05-03T14:39:43.625Z,23.30
2018-05-03T14:42:11.116Z,23.30
2018-05-03T14:44:38.584Z,23.20
2018-05-03T14:47:06.066Z,23.60
2018-05-03T14:49:33.544Z,24.00
2018-05-03T14:52:01.772Z,25.70
2018-05-03T14:54:29.270Z,25.60
2018-05-03T14:56:57.502Z,25.80
2018-05-03T14:59:24.986Z,25.80
2018-05-03T15:01:52.449Z,25.60
2018-05-03T15:04:20.715Z,25.10
2018-05-03T15:06:48.187Z,25.10
2018-05-03T15:09:16.432Z,24.90
2018-05-03T15:11:43.894Z,24.90
2018-05-03T15:14:11.389Z,24.40
2018-05-03T15:16:38.926Z,24.10
2018-05-03T15:19:06.387Z,24.50
2018-05-03T15:21:33.843Z,24.50
2018-05-03T15:24:01.330Z,24.50
2018-05-03T15:26:28.854Z,24.20
2018-05-03T15:28:57.151Z,23.60
2018-05-03T15:31:25.401Z,23.40
2018-05-03T15:33:53.718Z,23.20
2018-05-03T15:36:21.937Z,23.00
2018-05-03T15:38:49.401Z,23.00
2018-05-03T15:41:16.880Z,22.80
2018-05-03T15:43:45.112Z,22.60
2018-05-03T15:46:12.605Z,22.60
2018-05-03T15:48:40.842Z,22.80
2018-05-03T15:51:08.348Z,22.80
2018-05-03T15:53:36.592Z,22.70
2018-05-03T15:56:04.084Z,22.60
2018-05-03T15:58:32.323Z,22.80
2018-05-03T16:00:59.815Z,22.80
2018-05-03T16:03:28.083Z,23.80
2018-05-03T16:05:56.324Z,24.10
2018-05-03T16:08:23.793Z,24.10
2018-05-03T16:10:51.287Z,23.80
2018-05-03T16:13:19.532Z,23.30
2018-05-03T16:15:47.122Z,23.30
2018-05-03T16:18:15.363Z,22.80
2018-05-03T16:20:42.981Z,22.80
2018-05-03T16:23:10.435Z,22.70
2018-05-03T16:25:37.927Z,22.60
2018-05-03T16:28:05.388Z,22.50
2018-05-03T16:30:32.875Z,22.30
2018-05-03T16:33:00.343Z,22.00
2018-05-03T16:35:28.572Z,21.60
2018-05-03T16:37:56.051Z,21.60
2018-05-03T16:40:25.023Z,21.50
2018-05-03T16:42:52.546Z,21.50
2018-05-03T16:45:20.018Z,21.40
2018-05-03T16:47:47.512Z,21.20
2018-05-03T16:50:14.987Z,21.10
2018-05-03T16:52:43.256Z,21.00
2018-05-03T16:55:10.768Z,20.90
2018-05-03T16:57:38.274Z,21.00
2018-05-03T17:00:05.756Z,20.90
2018-05-03T17:02:33.282Z,20.80
2018-05-03T17:05:00.745Z,20.70
2018-05-03T17:07:28.275Z,20.60
2018-05-03T17:09:55.744Z,20.50
2018-05-03T17:12:23.364Z,20.60
2018-05-03T17:14:50.877Z,20.40
2018-05-03T17:17:18.383Z,20.40
2018-05-03T17:19:45.853Z,20.40
2018-05-03T17:22:13.385Z,20.30
2018-05-03T17:24:40.859Z,20.20
2018-05-03T17:27:08.354Z,20.10
2018-05-03T17:29:35.847Z,20.10
2018-05-03T17:32:04.077Z,19.90
2018-05-03T17:34:31.575Z,19.90
2018-05-03T17:36:59.813Z,19.80
2018-05-03T17:39:27.295Z,19.80
2018-05-03T17:41:54.767Z,19.80
2018-05-03T17:44:23.120Z,19.50
2018-05-03T17:46:51.286Z,19.50
2018-05-03T17:49:18.796Z,19.50
2018-05-03T17:51:46.273Z,19.40
2018-05-03T17:54:13.786Z,19.30
2018-05-03T17:56:41.297Z,19.30
2018-05-03T17:59:08.907Z,19.20
2018-05-03T18:01:37.517Z,19.10
2018-05-03T18:04:05.016Z,19.10
2018-05-03T18:09:16.525Z,18.90
2018-05-03T18:11:43.986Z,18.90
2018-05-03T18:14:11.464Z,18.80
2018-05-03T18:16:38.939Z,18.70
2018-05-03T18:19:07.209Z,18.60
2018-05-03T18:21:34.673Z,18.50
2018-05-03T18:24:02.912Z,18.50
2018-05-03T18:26:30.511Z,18.50
2018-05-03T18:28:57.978Z,18.50
2018-05-03T18:31:26.243Z,18.40
2018-05-03T18:33:54.478Z,18.30
2018-05-03T18:36:22.060Z,18.30
2018-05-03T18:38:49.525Z,18.20
2018-05-03T18:41:17.016Z,18.20
2018-05-03T18:43:44.508Z,18.20
2018-05-03T18:46:11.979Z,18.10
2018-05-03T18:48:39.447Z,18.10
2018-05-03T18:51:06.953Z,18.00
2018-05-03T18:53:34.419Z,18.00
2018-05-03T18:56:01.946Z,17.90
2018-05-03T18:58:30.195Z,17.80
2018-05-03T19:00:59.263Z,17.80
2018-05-03T19:03:27.488Z,17.70
2018-05-03T19:05:55.748Z,17.70
2018-05-03T19:08:24.009Z,17.60
2018-05-03T19:10:51.522Z,17.60
2018-05-03T19:13:19.014Z,17.60
2018-05-03T19:15:46.488Z,17.50
2018-05-03T19:18:14.766Z,17.40
2018-05-03T19:20:42.270Z,17.40
2018-05-03T19:23:09.765Z,17.40
2018-05-03T19:25:37.228Z,17.40
2018-05-03T19:28:05.000Z,17.90
2018-05-03T19:30:32.800Z,17.30
2018-05-03T19:33:01.341Z,17.30
2018-05-03T19:35:28.912Z,17.30
2018-05-03T19:37:56.417Z,17.20
2018-05-03T19:40:23.896Z,17.20
2018-05-03T19:42:51.385Z,17.10
2018-05-03T19:45:19.619Z,17.10
2018-05-03T19:47:47.117Z,17.10
2018-05-03T19:50:14.577Z,17.10
2018-05-03T19:52:43.589Z,17.00
2018-05-03T19:55:11.814Z,17.00
2018-05-03T19:57:39.313Z,17.00
2018-05-03T20:00:07.545Z,16.90
2018-05-03T20:02:35.036Z,16.90
2018-05-03T20:05:02.509Z,16.80
2018-05-03T20:07:30.734Z,16.80
2018-05-03T20:09:58.244Z,16.70
2018-05-03T20:12:26.472Z,16.60
2018-05-03T20:14:53.953Z,16.60
2018-05-03T20:17:22.176Z,16.60
2018-05-03T20:19:49.677Z,16.60
2018-05-03T20:22:19.632Z,16.40
2018-05-03T20:24:47.950Z,16.40
2018-05-03T20:27:15.515Z,16.40
2018-05-03T20:29:43.176Z,16.40
2018-05-03T20:32:10.752Z,17.50
2018-05-03T20:34:39.001Z,16.30
2018-05-03T20:37:06.920Z,16.20
2018-05-03T20:39:35.458Z,16.20
2018-05-03T20:42:03.276Z,16.10
2018-05-03T20:44:31.729Z,16.10
2018-05-03T20:46:59.213Z,16.10
2018-05-03T20:49:28.096Z,16.00
2018-05-03T20:51:56.942Z,15.90
2018-05-03T20:54:24.453Z,15.90
2018-05-03T20:56:52.892Z,15.80
2018-05-03T20:59:20.385Z,15.80
2018-05-03T21:01:48.659Z,15.70
2018-05-03T21:04:16.906Z,15.70
2018-05-03T21:06:45.904Z,15.60
2018-05-03T21:09:14.126Z,15.60
2018-05-03T21:11:41.623Z,15.60
2018-05-03T21:14:09.082Z,15.50
2018-05-03T21:16:36.597Z,15.50
2018-05-03T21:19:04.159Z,15.50
2018-05-03T21:21:31.647Z,15.50
2018-05-03T21:23:59.119Z,15.40
2018-05-03T21:26:26.699Z,15.40
2018-05-03T21:28:54.136Z,15.30
2018-05-03T21:31:23.132Z,15.20
2018-05-03T21:33:50.632Z,15.20
2018-05-03T21:36:18.102Z,15.20
2018-05-03T21:38:45.602Z,15.20
2018-05-03T21:41:13.182Z,15.10
2018-05-03T21:43:41.445Z,15.10
2018-05-03T21:46:10.433Z,15.00
2018-05-03T21:48:37.963Z,15.00
2018-05-03T21:51:05.454Z,14.90
2018-05-03T21:53:33.698Z,14.80
2018-05-03T21:56:01.159Z,14.90
2018-05-03T21:58:28.640Z,14.90
2018-05-03T22:00:56.116Z,14.80
2018-05-03T22:03:24.639Z,14.80
2018-05-03T22:05:52.186Z,14.80
2018-05-03T22:08:19.689Z,14.80
2018-05-03T22:10:47.153Z,14.80
2018-05-03T22:13:14.773Z,14.70
2018-05-03T22:15:42.326Z,14.70
2018-05-03T22:18:09.803Z,14.70
2018-05-03T22:20:37.287Z,14.60
2018-05-03T22:23:04.744Z,14.60
2018-05-03T22:25:33.734Z,14.50
2018-05-03T22:28:01.222Z,14.50
2018-05-03T22:30:29.460Z,14.50
2018-05-03T22:32:57.037Z,14.50
2018-05-03T22:35:24.521Z,14.50
2018-05-03T22:37:51.987Z,14.50
2018-05-03T22:40:20.294Z,14.50
2018-05-03T22:42:47.853Z,14.50
2018-05-03T22:45:15.406Z,14.40
2018-05-03T22:47:42.906Z,14.40
2018-05-03T22:50:10.374Z,14.50
2018-05-03T22:52:37.860Z,14.40
2018-05-03T22:55:06.142Z,14.20
2018-05-03T22:57:34.371Z,14.20
2018-05-03T23:00:01.847Z,14.30
2018-05-03T23:02:29.431Z,14.10
2018-05-03T23:04:56.941Z,14.10
2018-05-03T23:07:24.549Z,14.20
2018-05-03T23:09:52.796Z,14.10
2018-05-03T23:12:21.781Z,14.00
2018-05-03T23:14:49.300Z,14.00
2018-05-03T23:17:16.797Z,14.10
2018-05-03T23:19:44.294Z,14.10
2018-05-03T23:22:12.531Z,14.10
2018-05-03T23:24:40.251Z,14.10
2018-05-03T23:27:07.746Z,14.10
2018-05-03T23:29:35.207Z,14.00
2018-05-03T23:32:02.713Z,14.00
2018-05-03T23:34:30.283Z,14.00
2018-05-03T23:36:57.791Z,13.90
2018-05-03T23:39:26.087Z,14.00
2018-05-03T23:41:54.341Z,13.80
2018-05-03T23:44:21.798Z,13.80
2018-05-03T23:46:50.090Z,13.80
2018-05-03T23:49:18.311Z,13.80
2018-05-03T23:51:45.890Z,13.80
2018-05-03T23:54:13.352Z,13.80
2018-05-03T23:56:40.811Z,13.80
2018-05-03T23:59:08.311Z,13.80
